Time;durP1;ratioP1;P1;durP2;ratioP2;P2;SDS_P1;SDS_P2;PMS_P1;PMS_P2;Temp;Humidity;BMP_temperature;BMP_pressure;BME280_temperature;BME280_humidity;BME280_pressure;Samples;Min_cycle;Max_cycle;Signal;HPM_P1;HPM_P2
2021/08/25 00:01:48;;;;;;;15.58;8.80;;;23.40;77.40;;;;;;1872541;77;21038;-49
2021/08/25 00:04:17;;;;;;;11.15;8.13;;;23.40;77.40;;;;;;1872478;77;21007;-48
2021/08/25 00:06:46;;;;;;;11.68;7.60;;;23.40;77.40;;;;;;1872690;77;21112;-48
2021/08/25 00:09:16;;;;;;;10.23;8.10;;;23.40;77.30;;;;;;1872793;77;21011;-50
2021/08/25 00:11:46;;;;;;;13.28;8.65;;;23.40;77.20;;;;;;1872611;76;21035;-49
2021/08/25 00:14:15;;;;;;;11.65;8.48;;;23.40;76.90;;;;;;1872697;77;21047;-48
2021/08/25 00:16:44;;;;;;;12.55;8.30;;;23.30;77.00;;;;;;1872601;77;21098;-46
2021/08/25 00:19:14;;;;;;;10.80;8.10;;;23.30;77.30;;;;;;1873728;76;21027;-49
2021/08/25 00:21:43;;;;;;;10.30;8.28;;;23.20;77.50;;;;;;1894270;76;21155;-50
2021/08/25 00:24:12;;;;;;;10.38;8.03;;;23.20;77.70;;;;;;1894090;76;21022;-47
2021/08/25 00:26:46;;;;;;;10.30;7.97;;;23.10;77.60;;;;;;1894258;75;21006;-45
2021/08/25 00:29:12;;;;;;;12.73;7.67;;;23.10;77.70;;;;;;1893902;75;21002;-46
2021/08/25 00:31:42;;;;;;;9.40;8.05;;;23.10;78.10;;;;;;1894319;75;21080;-49
2021/08/25 00:34:11;;;;;;;12.33;8.58;;;23.00;78.30;;;;;;1894233;76;21046;-48
2021/08/25 00:36:41;;;;;;;8.78;7.60;;;23.00;78.40;;;;;;1894365;74;21006;-50
2021/08/25 00:39:10;;;;;;;10.45;8.35;;;23.00;78.50;;;;;;1894221;76;21441;-47
2021/08/25 00:41:39;;;;;;;12.15;8.00;;;23.00;78.60;;;;;;1894140;76;21030;-47
2021/08/25 00:44:09;;;;;;;10.23;7.42;;;23.00;78.40;;;;;;1894201;76;21026;-48
2021/08/25 00:46:39;;;;;;;16.70;8.30;;;23.00;78.40;;;;;;1894217;76;21175;-49
2021/08/25 00:49:08;;;;;;;11.08;7.83;;;23.00;78.40;;;;;;1894128;76;21034;-50
2021/08/25 00:51:38;;;;;;;11.80;8.68;;;23.00;78.50;;;;;;1894122;76;21097;-49
2021/08/25 00:54:07;;;;;;;14.85;8.10;;;23.00;78.70;;;;;;1894096;76;21022;-49
2021/08/25 00:56:37;;;;;;;15.75;7.47;;;22.90;78.70;;;;;;1894099;74;21033;-49
2021/08/25 00:59:07;;;;;;;11.00;7.95;;;22.90;79.00;;;;;;1894203;76;21034;-49
2021/08/25 01:02:04;;;;;;;11.60;8.50;;;22.90;79.10;;;;;;1894205;75;21028;-47
2021/08/25 01:04:43;;;;;;;12.88;8.83;;;22.90;79.10;;;;;;1894103;76;21046;-48
2021/08/25 01:07:14;;;;;;;10.58;8.88;;;22.90;78.90;;;;;;1872407;75;21191;-49
2021/08/25 01:09:44;;;;;;;12.90;8.85;;;22.90;78.90;;;;;;1894212;76;21562;-49
2021/08/25 01:12:14;;;;;;;11.35;8.33;;;22.80;79.00;;;;;;1894110;74;21003;-50
2021/08/25 01:14:44;;;;;;;12.70;8.75;;;22.80;79.20;;;;;;1894123;76;21038;-49
2021/08/25 01:17:14;;;;;;;11.18;8.65;;;22.80;79.30;;;;;;1894086;75;21092;-45
2021/08/25 01:19:58;;;;;;;16.27;8.05;;;22.80;79.30;;;;;;1894149;75;21112;-48
2021/08/25 01:22:28;;;;;;;10.85;7.25;;;22.80;79.40;;;;;;1893939;75;21038;-50
2021/08/25 01:24:58;;;;;;;11.95;8.30;;;22.80;79.30;;;;;;1894098;76;21034;-49
2021/08/25 01:27:29;;;;;;;10.88;7.40;;;22.80;79.40;;;;;;1894119;76;21002;-50
2021/08/25 01:29:59;;;;;;;9.60;7.90;;;22.80;79.50;;;;;;1894212;76;21029;-47
2021/08/25 01:32:29;;;;;;;9.95;7.15;;;22.80;79.60;;;;;;1894104;76;21006;-49
2021/08/25 01:34:59;;;;;;;10.78;7.40;;;22.70;79.60;;;;;;1894211;76;21038;-49
2021/08/25 01:37:28;;;;;;;9.60;7.30;;;22.70;79.50;;;;;;1894112;76;21088;-48
2021/08/25 01:40:01;;;;;;;11.60;7.22;;;22.70;79.50;;;;;;1894202;75;21203;-46
2021/08/25 01:42:31;;;;;;;10.08;7.20;;;22.70;79.40;;;;;;1894203;75;21214;-45
2021/08/25 01:45:00;;;;;;;11.88;7.67;;;22.70;79.40;;;;;;1894108;75;21050;-46
2021/08/25 01:47:30;;;;;;;12.37;7.47;;;22.70;79.30;;;;;;1894110;76;21037;-48
2021/08/25 01:49:59;;;;;;;11.93;8.33;;;22.70;79.30;;;;;;1894106;76;21032;-49
2021/08/25 01:52:29;;;;;;;11.97;8.03;;;22.70;79.30;;;;;;1894085;76;21045;-46
2021/08/25 01:54:58;;;;;;;8.35;6.85;;;22.70;79.30;;;;;;1894108;76;21033;-48
2021/08/25 01:57:28;;;;;;;15.93;7.60;;;22.70;79.20;;;;;;1894111;76;21030;-47
2021/08/25 01:59:57;;;;;;;11.30;7.62;;;22.60;79.10;;;;;;1894192;76;21046;-49
2021/08/25 02:02:27;;;;;;;9.28;7.10;;;22.60;79.10;;;;;;1894087;76;21092;-47
2021/08/25 02:04:58;;;;;;;12.98;8.25;;;22.60;79.10;;;;;;1893960;75;21086;-48
2021/08/25 02:07:27;;;;;;;8.48;7.50;;;22.60;79.40;;;;;;1894048;74;21100;-49
2021/08/25 02:09:57;;;;;;;10.08;8.15;;;22.60;79.30;;;;;;1894235;76;21468;-49
2021/08/25 02:12:26;;;;;;;10.10;7.45;;;22.60;79.20;;;;;;1894097;76;21554;-48
2021/08/25 02:14:55;;;;;;;10.25;7.72;;;22.50;79.30;;;;;;1894115;76;21022;-48
2021/08/25 02:17:25;;;;;;;11.70;7.25;;;22.50;79.40;;;;;;1894209;75;21077;-47
2021/08/25 02:19:54;;;;;;;10.72;7.78;;;22.50;79.70;;;;;;1894037;76;21077;-49
2021/08/25 02:22:24;;;;;;;11.80;7.55;;;22.50;79.60;;;;;;1894157;76;21030;-46
2021/08/25 02:24:53;;;;;;;13.13;8.10;;;22.50;79.50;;;;;;1894139;76;21421;-49
2021/08/25 02:27:22;;;;;;;9.35;7.47;;;22.40;79.30;;;;;;1894016;76;21089;-47
2021/08/25 02:30:01;;;;;;;12.35;6.97;;;22.40;79.60;;;;;;1894121;75;21080;-49
2021/08/25 02:32:24;;;;;;;8.95;7.42;;;22.40;79.80;;;;;;1891611;75;21038;-49
2021/08/25 02:34:54;;;;;;;7.87;6.72;;;22.30;79.60;;;;;;1894216;76;21038;-47
2021/08/25 02:37:23;;;;;;;11.15;7.25;;;22.30;79.60;;;;;;1894057;76;21034;-50
2021/08/25 02:39:53;;;;;;;8.08;7.12;;;22.30;79.70;;;;;;1894087;75;21003;-50
2021/08/25 02:42:22;;;;;;;12.65;7.40;;;22.30;79.90;;;;;;1894075;75;21113;-50
2021/08/25 02:44:52;;;;;;;12.82;7.00;;;22.30;79.80;;;;;;1894126;75;21046;-49
2021/08/25 02:47:21;;;;;;;8.48;6.22;;;22.30;80.50;;;;;;1894072;74;21104;-47
2021/08/25 02:49:50;;;;;;;11.70;7.37;;;22.30;80.20;;;;;;1894183;76;21030;-47
2021/08/25 02:52:20;;;;;;;17.30;8.28;;;22.30;79.50;;;;;;1894054;76;21030;-48
2021/08/25 02:54:50;;;;;;;14.70;7.70;;;22.30;79.60;;;;;;1894100;76;21030;-48
2021/08/25 02:57:19;;;;;;;8.65;6.97;;;22.20;79.70;;;;;;1894231;75;21108;-48
2021/08/25 02:59:48;;;;;;;9.78;7.05;;;22.20;79.90;;;;;;1894155;75;21095;-49
2021/08/25 03:02:18;;;;;;;11.33;7.30;;;22.20;79.90;;;;;;1894010;76;21006;-47
2021/08/25 03:04:47;;;;;;;8.45;6.62;;;22.20;79.90;;;;;;1894135;76;21026;-49
2021/08/25 03:07:17;;;;;;;9.95;6.85;;;22.20;79.90;;;;;;1894025;76;21100;-48
2021/08/25 03:09:46;;;;;;;11.05;6.55;;;22.20;79.80;;;;;;1894059;76;21077;-46
2021/08/25 03:12:15;;;;;;;10.40;6.60;;;22.20;79.90;;;;;;1894172;75;21026;-47
2021/08/25 03:14:44;;;;;;;9.75;6.60;;;22.20;79.90;;;;;;1894113;76;21006;-49
2021/08/25 03:17:14;;;;;;;13.10;6.33;;;22.20;79.80;;;;;;1894089;74;21137;-49
2021/08/25 03:19:44;;;;;;;9.18;6.45;;;22.20;79.70;;;;;;1894051;76;21030;-47
2021/08/25 03:22:13;;;;;;;10.05;7.08;;;22.30;79.70;;;;;;1894036;75;21066;-50
2021/08/25 03:24:42;;;;;;;9.55;7.22;;;22.30;79.70;;;;;;1894048;75;21006;-45
2021/08/25 03:27:12;;;;;;;14.00;7.87;;;22.30;79.60;;;;;;1894159;76;21030;-48
2021/08/25 03:29:41;;;;;;;22.75;8.68;;;22.40;79.60;;;;;;1894172;76;21019;-50
2021/08/25 03:32:11;;;;;;;15.68;7.03;;;22.40;79.60;;;;;;1894029;76;21027;-48
2021/08/25 03:34:40;;;;;;;15.78;7.97;;;22.40;79.40;;;;;;1894199;74;21092;-45
2021/08/25 03:37:10;;;;;;;20.08;8.50;;;22.40;79.40;;;;;;1893968;76;21096;-49
2021/08/25 03:39:39;;;;;;;13.88;8.35;;;22.50;79.40;;;;;;1894000;76;21030;-49
2021/08/25 03:42:09;;;;;;;20.55;8.43;;;22.50;79.20;;;;;;1894153;75;21133;-50
2021/08/25 03:44:39;;;;;;;20.50;9.18;;;22.50;79.10;;;;;;1894115;76;21105;-46
2021/08/25 03:47:09;;;;;;;14.60;8.78;;;22.60;79.00;;;;;;1894037;76;21088;-49
2021/08/25 03:49:38;;;;;;;16.52;10.08;;;22.70;78.80;;;;;;1894053;76;21139;-49
2021/08/25 03:52:08;;;;;;;17.40;10.78;;;22.80;78.70;;;;;;1894013;76;21080;-48
2021/08/25 03:54:38;;;;;;;15.53;9.25;;;22.80;78.20;;;;;;1894038;74;21034;-49
2021/08/25 03:57:07;;;;;;;13.88;9.33;;;22.90;78.00;;;;;;1894129;76;20998;-48
2021/08/25 03:59:36;;;;;;;14.53;9.20;;;22.90;77.90;;;;;;1894011;75;21058;-48
2021/08/25 04:02:06;;;;;;;14.18;8.75;;;22.90;77.70;;;;;;1893999;76;21066;-48
2021/08/25 04:04:35;;;;;;;10.10;7.12;;;23.00;77.40;;;;;;1894063;74;21034;-48
2021/08/25 04:07:05;;;;;;;9.53;6.58;;;23.00;76.90;;;;;;1894058;76;21006;-49
2021/08/25 04:09:34;;;;;;;7.37;5.95;;;23.10;76.80;;;;;;1894126;76;21092;-48
2021/08/25 04:12:04;;;;;;;14.18;7.78;;;23.00;76.60;;;;;;1894095;75;21100;-49
2021/08/25 04:14:33;;;;;;;11.73;7.37;;;23.10;76.10;;;;;;1894014;76;21037;-50
2021/08/25 04:17:03;;;;;;;9.50;6.65;;;23.00;75.80;;;;;;1894063;76;21042;-46
2021/08/25 04:19:32;;;;;;;7.92;6.78;;;23.00;75.70;;;;;;1894022;75;21112;-49
2021/08/25 04:22:02;;;;;;;11.80;7.30;;;22.90;75.50;;;;;;1894014;75;21054;-47
2021/08/25 04:24:32;;;;;;;12.85;6.95;;;22.90;75.50;;;;;;1893864;74;21465;-48
2021/08/25 04:27:01;;;;;;;9.10;6.53;;;22.90;75.40;;;;;;1893901;76;21030;-46
2021/08/25 04:29:31;;;;;;;11.33;6.53;;;22.90;75.50;;;;;;1893946;76;21018;-46
2021/08/25 04:32:00;;;;;;;9.35;6.47;;;22.90;75.00;;;;;;1893823;76;21026;-48
2021/08/25 04:34:30;;;;;;;8.50;6.22;;;23.00;75.20;;;;;;1893795;76;21088;-49
2021/08/25 04:36:59;;;;;;;10.03;5.60;;;23.00;74.70;;;;;;1893903;75;21100;-48
2021/08/25 04:39:30;;;;;;;10.13;6.28;;;23.00;74.20;;;;;;1893777;76;21024;-48
2021/08/25 04:41:59;;;;;;;9.30;5.97;;;23.10;74.20;;;;;;1893859;76;21030;-49
2021/08/25 04:44:29;;;;;;;9.65;5.17;;;23.20;73.90;;;;;;1893800;76;21102;-46
2021/08/25 04:46:59;;;;;;;13.70;6.08;;;23.20;73.20;;;;;;1893871;76;21112;-48
2021/08/25 04:49:28;;;;;;;9.08;5.00;;;23.20;73.00;;;;;;1893799;75;21084;-48
2021/08/25 04:51:58;;;;;;;7.90;5.20;;;23.20;72.90;;;;;;1893810;76;21038;-48
2021/08/25 04:54:27;;;;;;;7.08;4.85;;;23.20;72.50;;;;;;1894062;76;21050;-45
2021/08/25 04:56:57;;;;;;;5.67;5.05;;;23.20;72.20;;;;;;1893936;76;21077;-49
2021/08/25 04:59:26;;;;;;;8.88;5.30;;;23.20;72.10;;;;;;1893941;76;21066;-46
2021/08/25 05:01:56;;;;;;;7.67;5.47;;;23.30;72.00;;;;;;1894032;76;21100;-49
2021/08/25 05:04:25;;;;;;;10.25;7.08;;;23.30;72.30;;;;;;1893963;74;21007;-47
2021/08/25 05:06:55;;;;;;;17.60;8.55;;;23.30;72.30;;;;;;1893932;76;21050;-47
2021/08/25 05:09:24;;;;;;;8.08;5.40;;;23.50;71.70;;;;;;1893969;76;21021;-46
2021/08/25 05:11:53;;;;;;;9.10;4.83;;;23.50;71.20;;;;;;1894090;76;21042;-48
2021/08/25 05:14:23;;;;;;;6.08;5.20;;;23.60;70.90;;;;;;1894050;74;21038;-47
2021/08/25 05:16:52;;;;;;;5.78;4.72;;;23.60;70.30;;;;;;1893937;75;21034;-47
2021/08/25 05:19:22;;;;;;;8.43;5.03;;;23.60;70.70;;;;;;1893985;75;21095;-46
2021/08/25 05:21:51;;;;;;;11.97;5.12;;;23.60;70.70;;;;;;1893962;75;21046;-50
2021/08/25 05:24:21;;;;;;;10.28;8.18;;;23.70;70.30;;;;;;1893954;75;21054;-49
2021/08/25 05:26:51;;;;;;;6.83;5.00;;;23.80;70.40;;;;;;1893929;76;21058;-49
2021/08/25 05:29:20;;;;;;;7.62;5.40;;;23.80;69.80;;;;;;1893800;76;21026;-45
2021/08/25 05:31:49;;;;;;;6.85;5.35;;;23.80;69.80;;;;;;1893982;75;21099;-47
2021/08/25 05:34:19;;;;;;;10.18;5.08;;;23.90;69.80;;;;;;1893881;76;21034;-46
2021/08/25 05:36:49;;;;;;;10.53;5.28;;;23.90;69.80;;;;;;1893836;75;21006;-49
2021/08/25 05:39:18;;;;;;;10.05;5.90;;;24.00;69.80;;;;;;1893816;76;21022;-46
2021/08/25 05:41:48;;;;;;;13.05;6.55;;;24.10;69.50;;;;;;1893859;76;21050;-47
2021/08/25 05:44:17;;;;;;;9.25;4.83;;;24.20;69.30;;;;;;1893897;74;21030;-45
2021/08/25 05:46:46;;;;;;;8.23;5.12;;;24.20;68.80;;;;;;1894019;76;21193;-47
2021/08/25 05:49:16;;;;;;;6.80;4.70;;;24.30;68.10;;;;;;1893890;76;21093;-46
2021/08/25 05:51:45;;;;;;;9.25;5.20;;;24.30;67.60;;;;;;1893908;75;21100;-47
2021/08/25 05:54:15;;;;;;;9.18;5.22;;;24.30;67.60;;;;;;1894017;76;21030;-46
2021/08/25 05:56:44;;;;;;;10.60;6.33;;;24.30;67.70;;;;;;1893999;75;21141;-46
2021/08/25 05:59:14;;;;;;;8.10;4.90;;;24.30;67.40;;;;;;1893932;75;21061;-47
2021/08/25 06:01:43;;;;;;;11.55;5.45;;;24.40;67.50;;;;;;1893906;75;21108;-45
2021/08/25 06:04:13;;;;;;;8.18;5.10;;;24.40;67.50;;;;;;1894000;76;21038;-46
2021/08/25 06:06:42;;;;;;;7.25;4.87;;;24.50;67.20;;;;;;1893940;75;21030;-46
2021/08/25 06:09:12;;;;;;;7.28;4.60;;;24.60;67.20;;;;;;1893888;76;21026;-45
2021/08/25 06:11:42;;;;;;;6.95;5.12;;;24.60;66.70;;;;;;1893960;75;21006;-46
2021/08/25 06:14:11;;;;;;;7.47;4.85;;;24.60;66.60;;;;;;1894025;76;21030;-46
2021/08/25 06:16:43;;;;;;;6.17;4.22;;;24.70;66.60;;;;;;1893880;76;21033;-46
2021/08/25 06:19:12;;;;;;;10.03;5.22;;;24.80;66.20;;;;;;1893918;74;21092;-46
2021/08/25 06:21:48;;;;;;;5.75;4.72;;;24.90;66.10;;;;;;1893632;76;21030;-47
2021/08/25 06:24:18;;;;;;;7.35;4.85;;;24.90;65.80;;;;;;1893895;75;21042;-48
2021/08/25 06:26:47;;;;;;;6.22;4.97;;;24.90;65.50;;;;;;1893070;76;21150;-46
2021/08/25 06:29:17;;;;;;;8.18;4.87;;;24.90;65.10;;;;;;1892911;76;21101;-46
2021/08/25 06:31:46;;;;;;;5.60;4.67;;;24.90;65.40;;;;;;1893651;76;21125;-46
2021/08/25 06:34:15;;;;;;;11.57;5.30;;;24.90;65.20;;;;;;1894054;75;21006;-45
2021/08/25 06:36:45;;;;;;;6.50;5.15;;;25.00;65.80;;;;;;1893865;74;21092;-46
2021/08/25 06:39:14;;;;;;;6.67;5.03;;;25.00;65.80;;;;;;1893882;76;21026;-49
2021/08/25 06:41:44;;;;;;;6.40;5.60;;;25.10;65.60;;;;;;1893876;75;21030;-49
2021/08/25 06:44:13;;;;;;;8.28;4.97;;;25.20;65.20;;;;;;1894050;75;21066;-49
2021/08/25 06:46:43;;;;;;;6.03;4.55;;;25.20;65.50;;;;;;1893896;76;21038;-45
2021/08/25 06:49:12;;;;;;;7.90;5.83;;;25.20;65.40;;;;;;1893924;74;21173;-48
2021/08/25 06:51:42;;;;;;;9.65;6.08;;;25.20;65.10;;;;;;1894016;76;21046;-46
2021/08/25 06:54:11;;;;;;;6.62;5.80;;;25.30;65.20;;;;;;1893968;76;20994;-47
2021/08/25 06:56:41;;;;;;;10.55;5.72;;;25.30;65.40;;;;;;1893860;74;21022;-46
2021/08/25 06:59:10;;;;;;;7.72;5.55;;;25.30;65.60;;;;;;1894000;76;20998;-47
2021/08/25 07:01:39;;;;;;;10.63;5.80;;;25.40;65.20;;;;;;1893860;76;21528;-46
2021/08/25 07:04:09;;;;;;;10.98;5.62;;;25.40;65.40;;;;;;1893963;74;21595;-49
2021/08/25 07:06:38;;;;;;;7.12;5.45;;;25.40;65.20;;;;;;1893838;74;21107;-49
2021/08/25 07:09:07;;;;;;;8.33;6.22;;;25.40;66.00;;;;;;1893965;76;21073;-50
2021/08/25 07:11:37;;;;;;;10.85;6.35;;;25.50;65.80;;;;;;1892519;76;21113;-52
2021/08/25 07:14:06;;;;;;;7.00;5.37;;;25.60;66.20;;;;;;1893440;76;21034;-51
2021/08/25 07:16:35;;;;;;;10.23;5.92;;;25.60;65.90;;;;;;1893285;76;21092;-50
2021/08/25 07:19:05;;;;;;;9.38;6.50;;;25.70;65.90;;;;;;1893095;76;21100;-46
2021/08/25 07:21:35;;;;;;;9.88;6.80;;;25.80;65.50;;;;;;1893156;76;21038;-49
2021/08/25 07:24:04;;;;;;;10.25;6.08;;;25.90;65.80;;;;;;1893174;76;21066;-50
2021/08/25 07:26:34;;;;;;;9.75;5.30;;;26.00;65.20;;;;;;1893095;74;21022;-48
2021/08/25 07:29:03;;;;;;;8.33;5.72;;;26.00;64.90;;;;;;1893279;74;21034;-49
2021/08/25 07:31:32;;;;;;;8.95;6.53;;;26.10;65.20;;;;;;1893197;76;21520;-48
2021/08/25 07:34:04;;;;;;;9.15;5.97;;;26.20;65.10;;;;;;1893044;76;21072;-45
2021/08/25 07:36:33;;;;;;;10.05;5.90;;;26.20;64.60;;;;;;1893326;76;21504;-44
2021/08/25 07:39:03;;;;;;;8.75;6.03;;;26.30;64.40;;;;;;1893291;76;21053;-47
2021/08/25 07:41:32;;;;;;;12.68;9.25;;;26.40;64.20;;;;;;1892976;76;21038;-46
2021/08/25 07:44:02;;;;;;;18.55;7.95;;;26.40;64.40;;;;;;1892375;76;21472;-48
2021/08/25 07:46:34;;;;;;;10.80;5.55;;;26.40;64.10;;;;;;1886359;76;21088;-46
2021/08/25 07:49:05;;;;;;;8.28;6.62;;;26.40;64.20;;;;;;1893086;74;21135;-47
2021/08/25 07:51:35;;;;;;;8.85;5.60;;;26.40;64.20;;;;;;1893095;76;21081;-48
2021/08/25 07:54:04;;;;;;;11.12;6.28;;;26.40;64.90;;;;;;1893130;76;21076;-47
2021/08/25 07:56:34;;;;;;;8.30;5.97;;;26.50;64.50;;;;;;1893352;76;21046;-46
2021/08/25 07:59:03;;;;;;;7.42;5.90;;;26.50;64.60;;;;;;1893260;76;21038;-48
2021/08/25 08:01:33;;;;;;;10.30;5.97;;;26.60;64.40;;;;;;1893085;74;21096;-49
2021/08/25 08:04:02;;;;;;;10.98;5.95;;;26.70;64.50;;;;;;1893068;75;21179;-47
2021/08/25 08:06:32;;;;;;;8.03;6.05;;;26.70;64.20;;;;;;1893315;75;21034;-46
2021/08/25 08:09:02;;;;;;;10.45;6.00;;;26.80;63.90;;;;;;1893182;76;21015;-45
2021/08/25 08:11:32;;;;;;;7.42;5.62;;;26.70;64.10;;;;;;1893168;76;21038;-46
2021/08/25 08:14:01;;;;;;;13.15;6.40;;;26.80;64.40;;;;;;1893114;76;21093;-48
2021/08/25 08:16:33;;;;;;;6.60;5.90;;;26.80;64.00;;;;;;1893115;76;21034;-50
2021/08/25 08:19:04;;;;;;;10.50;6.33;;;26.80;64.30;;;;;;1893263;76;21078;-48
2021/08/25 08:21:32;;;;;;;12.25;6.25;;;26.90;64.30;;;;;;1892914;74;21054;-49
2021/08/25 08:24:01;;;;;;;11.53;6.15;;;27.00;63.90;;;;;;1893151;75;21077;-46
2021/08/25 08:26:31;;;;;;;12.23;6.50;;;27.00;64.00;;;;;;1893253;76;21429;-48
2021/08/25 08:29:00;;;;;;;12.78;6.20;;;27.00;63.90;;;;;;1893388;75;21010;-47
2021/08/25 08:31:30;;;;;;;37.48;28.85;;;27.00;63.70;;;;;;1893221;76;21082;-49
2021/08/25 08:33:59;;;;;;;8.30;6.40;;;27.10;64.20;;;;;;1893171;76;21066;-45
2021/08/25 08:36:29;;;;;;;9.38;7.12;;;27.10;64.20;;;;;;1893313;74;21139;-51
2021/08/25 08:38:58;;;;;;;15.88;6.60;;;27.20;63.90;;;;;;1893338;74;21139;-46
2021/08/25 08:41:28;;;;;;;9.53;6.25;;;27.30;63.90;;;;;;1893294;76;21124;-50
2021/08/25 08:43:57;;;;;;;10.82;6.17;;;27.30;63.90;;;;;;1893359;74;21002;-50
2021/08/25 08:46:26;;;;;;;10.28;6.83;;;27.30;64.00;;;;;;1893253;76;21030;-51
2021/08/25 08:48:56;;;;;;;11.18;6.83;;;27.40;64.00;;;;;;1893337;74;21026;-50
2021/08/25 08:51:26;;;;;;;10.60;6.47;;;27.50;63.70;;;;;;1893237;76;21108;-48
2021/08/25 08:53:55;;;;;;;15.63;8.38;;;27.60;63.60;;;;;;1893384;74;21042;-49
2021/08/25 08:56:24;;;;;;;7.22;6.40;;;27.70;63.30;;;;;;1893344;76;21038;-46
2021/08/25 08:58:56;;;;;;;10.18;6.92;;;27.70;63.30;;;;;;1893298;76;21143;-49
2021/08/25 09:01:25;;;;;;;10.03;6.45;;;27.80;63.20;;;;;;1893462;76;21116;-48
2021/08/25 09:03:55;;;;;;;8.75;5.75;;;27.90;63.40;;;;;;1893348;75;21030;-50
2021/08/25 09:06:44;;;;;;;9.58;6.87;;;27.90;63.40;;;;;;1893330;76;21010;-45
2021/08/25 09:09:14;;;;;;;10.40;6.15;;;28.00;63.10;;;;;;1893476;76;21105;-51
2021/08/25 09:11:53;;;;;;;12.85;6.62;;;28.10;63.30;;;;;;1893205;75;21085;-49
2021/08/25 09:14:27;;;;;;;11.40;6.47;;;28.10;62.70;;;;;;1893285;75;21658;-48
2021/08/25 09:17:03;;;;;;;13.28;7.40;;;28.10;62.80;;;;;;1893401;76;21022;-46
2021/08/25 09:19:35;;;;;;;12.20;6.53;;;28.00;62.70;;;;;;1893262;76;21026;-47
2021/08/25 09:22:07;;;;;;;8.15;7.00;;;28.00;62.80;;;;;;1893486;76;21033;-49
2021/08/25 09:24:41;;;;;;;8.65;6.35;;;28.00;62.90;;;;;;1889621;75;21492;-50
2021/08/25 09:27:12;;;;;;;9.10;6.33;;;28.10;63.00;;;;;;1871995;77;21078;-47
2021/08/25 09:29:44;;;;;;;12.53;7.00;;;28.10;63.10;;;;;;1871459;76;21536;-48
2021/08/25 09:32:21;;;;;;;11.93;7.05;;;28.20;62.90;;;;;;1871664;77;21027;-50
2021/08/25 09:34:57;;;;;;;16.10;6.67;;;28.30;63.00;;;;;;1871748;77;20999;-50
2021/08/25 09:37:28;;;;;;;11.85;6.53;;;28.40;62.80;;;;;;1871798;77;21168;-49
2021/08/25 09:39:59;;;;;;;10.43;7.33;;;28.40;62.10;;;;;;1871621;75;21152;-51
2021/08/25 09:42:31;;;;;;;12.78;7.33;;;28.40;61.80;;;;;;1871796;77;21070;-45
2021/08/25 09:45:07;;;;;;;10.03;6.45;;;28.30;62.30;;;;;;1869792;76;21067;-46
2021/08/25 09:47:53;;;;;;;9.75;6.50;;;28.40;62.50;;;;;;1871698;77;21114;-49
2021/08/25 09:50:24;;;;;;;11.00;7.55;;;28.40;62.60;;;;;;1871857;77;21011;-49
2021/08/25 09:52:54;;;;;;;20.00;6.85;;;28.50;62.00;;;;;;1871757;77;21140;-49
2021/08/25 09:55:36;;;;;;;9.65;6.90;;;28.60;61.60;;;;;;1871675;77;21074;-49
2021/08/25 09:58:08;;;;;;;13.15;6.35;;;28.60;61.60;;;;;;1871947;77;21035;-49
2021/08/25 10:00:37;;;;;;;14.60;7.42;;;28.60;62.20;;;;;;1870742;75;21547;-47
2021/08/25 10:03:06;;;;;;;16.50;6.75;;;28.70;61.80;;;;;;1871804;77;21026;-47
2021/08/25 10:05:35;;;;;;;11.60;6.72;;;28.80;61.60;;;;;;1871808;77;21066;-48
2021/08/25 10:08:06;;;;;;;9.30;6.28;;;28.80;61.50;;;;;;1872224;77;21040;-52
2021/08/25 10:10:35;;;;;;;10.00;7.03;;;28.90;61.40;;;;;;1872576;77;21097;-52
2021/08/25 10:13:04;;;;;;;12.05;6.40;;;29.00;61.60;;;;;;1872517;76;21035;-53
2021/08/25 10:15:47;;;;;;;11.35;6.55;;;29.00;61.20;;;;;;1872523;75;21129;-53
2021/08/25 10:18:22;;;;;;;12.93;6.50;;;29.10;60.60;;;;;;1871464;75;21051;-52
2021/08/25 10:21:00;;;;;;;13.40;6.83;;;29.00;60.40;;;;;;1872476;77;21015;-52
2021/08/25 10:24:02;;;;;;;8.38;5.97;;;29.00;60.00;;;;;;1872373;77;21027;-53
2021/08/25 10:26:33;;;;;;;8.58;6.60;;;28.90;60.20;;;;;;1884842;76;21125;-53
2021/08/25 10:29:08;;;;;;;9.45;6.37;;;28.90;60.00;;;;;;1893977;75;21030;-56
2021/08/25 10:31:56;;;;;;;9.93;6.10;;;28.90;61.30;;;;;;1893975;74;21159;-55
2021/08/25 10:34:38;;;;;;;14.28;6.28;;;29.00;60.30;;;;;;1894030;75;21038;-55
2021/08/25 10:37:20;;;;;;;13.30;6.80;;;29.00;60.10;;;;;;1891314;75;21546;-55
2021/08/25 10:39:50;;;;;;;9.78;6.80;;;29.00;59.80;;;;;;1893707;75;21194;-54
2021/08/25 10:42:17;;;;;;;14.93;6.55;;;29.00;59.30;;;;;;1893711;75;21027;-55
2021/08/25 10:44:47;;;;;;;12.20;7.33;;;29.00;59.50;;;;;;1893793;76;20999;-54
2021/08/25 10:47:18;;;;;;;10.80;6.05;;;29.00;59.90;;;;;;1893912;76;21120;-55
2021/08/25 10:49:48;;;;;;;10.15;6.03;;;29.10;59.90;;;;;;1893902;76;21038;-55
2021/08/25 10:52:20;;;;;;;11.70;6.37;;;29.10;59.40;;;;;;1893824;75;21096;-55
2021/08/25 10:54:51;;;;;;;15.55;9.35;;;29.20;59.30;;;;;;1894020;76;21049;-54
2021/08/25 10:57:23;;;;;;;8.08;5.40;;;29.30;59.60;;;;;;1893983;74;21107;-54
2021/08/25 10:59:53;;;;;;;14.63;6.15;;;29.30;58.80;;;;;;1893999;75;21034;-53
2021/08/25 11:02:22;;;;;;;9.33;5.78;;;29.30;58.60;;;;;;1893962;76;21030;-54
2021/08/25 11:04:54;;;;;;;9.93;5.75;;;29.30;58.70;;;;;;1893915;76;21030;-55
2021/08/25 11:07:25;;;;;;;11.25;6.28;;;29.30;58.80;;;;;;1892832;75;21029;-55
2021/08/25 11:09:54;;;;;;;12.10;6.40;;;29.30;58.70;;;;;;1893901;76;21034;-55
2021/08/25 11:12:24;;;;;;;21.93;7.20;;;29.40;58.80;;;;;;1894074;76;21092;-55
2021/08/25 11:14:55;;;;;;;9.43;6.08;;;29.40;59.00;;;;;;1893932;76;21030;-55
2021/08/25 11:17:34;;;;;;;9.68;6.10;;;29.50;58.70;;;;;;1893962;76;21167;-54
2021/08/25 11:20:05;;;;;;;11.40;6.75;;;29.50;59.60;;;;;;1894037;76;21489;-55
2021/08/25 11:22:40;;;;;;;10.45;6.35;;;29.60;58.70;;;;;;1894030;76;21469;-55
2021/08/25 11:25:17;;;;;;;14.73;6.67;;;29.60;59.00;;;;;;1893203;75;21159;-55
2021/08/25 11:27:48;;;;;;;13.08;6.83;;;29.70;58.80;;;;;;1875534;76;21129;-55
2021/08/25 11:30:24;;;;;;;10.15;7.40;;;29.80;58.70;;;;;;1872506;77;21520;-55
2021/08/25 11:33:10;;;;;;;10.40;6.15;;;29.80;58.30;;;;;;1872540;77;21023;-55
2021/08/25 11:35:44;;;;;;;12.20;5.65;;;29.80;58.20;;;;;;1870875;76;21050;-55
2021/08/25 11:38:19;;;;;;;8.55;5.85;;;29.80;58.30;;;;;;1872426;77;21054;-55
2021/08/25 11:40:48;;;;;;;;;;;29.80;58.50;;;;;;1875178;77;21164;-56
2021/08/25 11:43:24;;;;;;;9.93;6.60;;;29.80;57.30;;;;;;1872378;77;20111;-55
2021/08/25 11:45:54;;;;;;;9.98;6.05;;;29.80;58.40;;;;;;1872326;77;21035;-55
2021/08/25 11:48:28;;;;;;;10.55;6.47;;;29.80;58.20;;;;;;1872316;77;21002;-55
2021/08/25 11:50:58;;;;;;;10.53;5.67;;;29.80;58.20;;;;;;1872661;75;21117;-55
2021/08/25 11:53:35;;;;;;;11.03;6.28;;;29.90;58.40;;;;;;1872395;77;21034;-55
2021/08/25 11:56:05;;;;;;;11.48;6.83;;;30.00;58.30;;;;;;1872575;76;21035;-56
2021/08/25 11:58:36;;;;;;;10.48;5.70;;;30.00;57.80;;;;;;1872557;75;21043;-55
2021/08/25 12:01:07;;;;;;;6.92;5.75;;;30.00;58.20;;;;;;1872683;75;21034;-55
2021/08/25 12:03:41;;;;;;;11.80;6.35;;;30.00;58.30;;;;;;1871661;77;21090;-55
2021/08/25 12:06:12;;;;;;;9.98;5.97;;;30.00;58.10;;;;;;1872513;75;21035;-55
2021/08/25 12:08:42;;;;;;;13.18;6.20;;;30.10;58.00;;;;;;1872594;77;21035;-55
2021/08/25 12:11:13;;;;;;;13.83;5.95;;;30.10;57.70;;;;;;1872559;77;21031;-55
2021/08/25 12:13:44;;;;;;;6.47;5.40;;;30.10;58.00;;;;;;1872438;76;21038;-55
2021/08/25 12:16:27;;;;;;;13.30;6.90;;;30.10;57.90;;;;;;1872446;77;21007;-55
2021/08/25 12:18:58;;;;;;;14.30;6.87;;;30.10;57.90;;;;;;1872554;77;21459;-54
2021/08/25 12:21:29;;;;;;;13.32;7.08;;;30.10;57.80;;;;;;1872464;76;21027;-55
2021/08/25 12:24:10;;;;;;;8.83;6.17;;;30.10;58.00;;;;;;1872429;77;21003;-55
2021/08/25 12:26:42;;;;;;;7.47;5.40;;;30.10;57.80;;;;;;1875330;75;21332;-55
2021/08/25 12:29:12;;;;;;;13.93;7.08;;;30.10;57.60;;;;;;1894037;76;21074;-55
2021/08/25 12:31:42;;;;;;;7.90;5.72;;;30.10;57.60;;;;;;1893996;76;21097;-55
2021/08/25 12:34:17;;;;;;;7.30;5.80;;;30.10;57.60;;;;;;1894035;76;21006;-55
2021/08/25 12:36:56;;;;;;;6.75;5.90;;;30.20;57.90;;;;;;1893974;74;21101;-56
2021/08/25 12:39:30;;;;;;;9.68;6.28;;;30.20;57.70;;;;;;1894061;76;21010;-56
2021/08/25 12:41:59;;;;;;;12.00;5.60;;;30.20;57.40;;;;;;1894129;76;21006;-56
2021/08/25 12:44:29;;;;;;;11.43;5.75;;;30.20;57.30;;;;;;1894090;76;21006;-55
2021/08/25 12:47:01;;;;;;;12.03;4.97;;;30.20;57.20;;;;;;1893979;76;21119;-55
2021/08/25 12:49:36;;;;;;;5.90;4.75;;;30.20;57.10;;;;;;1894088;76;21527;-56
2021/08/25 12:52:06;;;;;;;11.50;6.45;;;30.20;56.80;;;;;;1894044;76;21050;-55
2021/08/25 12:54:36;;;;;;;12.25;6.53;;;30.10;56.80;;;;;;1893976;76;21091;-56
2021/08/25 12:57:06;;;;;;;12.35;6.80;;;30.20;57.60;;;;;;1894072;76;21084;-56
2021/08/25 12:59:35;;;;;;;10.03;5.70;;;30.20;57.70;;;;;;1893917;75;21030;-56